Time;durP1;ratioP1;P1;durP2;ratioP2;P2;SDS_P1;SDS_P2;PMS_P1;PMS_P2;Temp;Humidity;BMP_temperature;BMP_pressure;BME280_temperature;BME280_humidity;BME280_pressure;Samples;Min_cycle;Max_cycle;Signal;HPM_P1;HPM_P2
2022/11/03 00:01:33;;;;;;;5.93;2.63;;;4.60;1.00;;;;;;5045639;28;20183;-81
2022/11/03 00:03:59;;;;;;;4.90;2.83;;;5.20;89.60;;;;;;5038026;28;20651;-79
2022/11/03 00:06:24;;;;;;;5.63;3.10;;;4.60;24.20;;;;;;5037782;28;20210;-81
2022/11/03 00:08:50;;;;;;;5.37;2.57;;;4.60;25.40;;;;;;5046625;28;20232;-80
2022/11/03 00:11:17;;;;;;;5.60;2.70;;;4.70;66.90;;;;;;5038094;28;20262;-80
2022/11/03 00:13:43;;;;;;;5.60;2.60;;;4.70;25.20;;;;;;5038615;28;20174;-79
2022/11/03 00:16:11;;;;;;;4.30;2.33;;;4.80;60.50;;;;;;5039541;28;20260;-80
2022/11/03 00:18:37;;;;;;;5.40;2.57;;;3.90;82.90;;;;;;5044536;28;20210;-78
2022/11/03 00:21:08;;;;;;;4.23;2.20;;;4.90;72.00;;;;;;5037643;28;20189;-80
2022/11/03 00:23:36;;;;;;;4.60;2.33;;;4.90;66.40;;;;;;5037628;28;20265;-81
2022/11/03 00:26:16;;;;;;;5.10;2.53;;;5.00;58.80;;;;;;5040257;28;20746;-82
2022/11/03 00:28:44;;;;;;;5.00;2.17;;;5.10;99.90;;;;;;5041151;28;20217;-83
2022/11/03 00:31:11;;;;;;;8.57;2.53;;;5.00;97.60;;;;;;5039927;28;20232;-82
2022/11/03 00:33:38;;;;;;;7.17;2.10;;;5.00;67.80;;;;;;5038515;28;20193;-80
2022/11/03 00:36:05;;;;;;;3.90;2.10;;;4.90;90.40;;;;;;5038558;28;20211;-81
2022/11/03 00:38:31;;;;;;;3.93;1.73;;;4.90;70.30;;;;;;5040070;28;20665;-82
2022/11/03 00:40:59;;;;;;;8.20;2.50;;;5.00;85.80;;;;;;5037690;28;20182;-80
2022/11/03 00:43:26;;;;;;;5.20;2.00;;;5.00;99.90;;;;;;5039130;28;20182;-82
2022/11/03 00:45:53;;;;;;;6.43;2.03;;;5.00;55.30;;;;;;5039826;28;20744;-80
2022/11/03 00:48:28;;;;;;;7.43;2.10;;;5.00;67.00;;;;;;5042928;28;20870;-80
2022/11/03 00:51:04;;;;;;;9.47;2.20;;;5.00;44.40;;;;;;5044489;28;20170;-82
2022/11/03 00:53:30;;;;;;;3.43;1.90;;;5.20;60.80;;;;;;5041659;28;20705;-83
2022/11/03 00:55:56;;;;;;;7.77;2.00;;;5.40;98.50;;;;;;5044454;28;20214;-81
2022/11/03 00:58:21;;;;;;;5.30;1.93;;;5.50;95.40;;;;;;5050006;28;20728;-83
2022/11/03 01:00:47;;;;;;;7.30;2.00;;;5.50;91.10;;;;;;5042827;28;20185;-83
2022/11/03 01:03:13;;;;;;;4.83;1.87;;;5.70;56.30;;;;;;5048351;28;20191;-81
2022/11/03 01:08:32;;;;;;;5.20;1.97;;;5.70;29.10;;;;;;5042295;28;20194;-79
2022/11/03 01:13:52;;;;;;;4.07;2.10;;;5.60;13.50;;;;;;5042094;28;20237;-81
2022/11/03 01:16:17;;;;;;;8.03;1.80;;;5.50;1.00;;;;;;5038576;28;20210;-81
2022/11/03 01:18:43;;;;;;;5.77;2.33;;;5.40;4.70;;;;;;5042212;28;20190;-82
2022/11/03 01:21:09;;;;;;;5.97;2.17;;;5.40;4.20;;;;;;5040860;28;20179;-80
2022/11/03 01:23:34;;;;;;;6.00;2.20;;;5.40;12.40;;;;;;5039984;28;20205;-82
2022/11/03 01:26:04;;;;;;;5.83;2.13;;;5.40;17.90;;;;;;5040065;28;20209;-79
2022/11/03 01:28:32;;;;;;;5.63;2.23;;;5.40;6.30;;;;;;5041189;28;20596;-80
2022/11/03 01:31:06;;;;;;;5.97;2.00;;;5.40;23.20;;;;;;5041716;28;20183;-81
2022/11/03 01:33:32;;;;;;;4.00;2.33;;;5.30;15.40;;;;;;5038882;28;20244;-80
2022/11/03 01:35:57;;;;;;;5.57;2.40;;;5.50;24.30;;;;;;5039763;28;20301;-79
2022/11/03 01:38:23;;;;;;;4.70;2.30;;;5.30;24.00;;;;;;5039581;28;20189;-81
2022/11/03 01:40:49;;;;;;;5.17;2.10;;;5.30;30.20;;;;;;5040421;28;20178;-82
2022/11/03 01:43:19;;;;;;;6.10;2.10;;;5.40;44.90;;;;;;5046980;28;20179;-80
2022/11/03 01:45:48;;;;;;;8.10;1.90;;;5.30;29.80;;;;;;5041458;28;20716;-79
2022/11/03 01:48:15;;;;;;;6.70;2.27;;;5.30;41.40;;;;;;5047829;28;20191;-81
2022/11/03 01:50:44;;;;;;;4.27;2.03;;;5.30;45.60;;;;;;5047351;28;20229;-82
2022/11/03 01:53:10;;;;;;;16.07;5.87;;;5.30;42.60;;;;;;5040408;28;20186;-81
2022/11/03 01:55:38;;;;;;;11.40;4.47;;;5.30;34.90;;;;;;5040884;28;20218;-80
2022/11/03 01:58:16;;;;;;;9.17;4.00;;;5.40;43.80;;;;;;5038455;28;20179;-80
2022/11/03 02:00:44;;;;;;;16.40;6.50;;;5.40;48.10;;;;;;5041048;28;20232;-80
2022/11/03 02:03:10;;;;;;;6.30;2.83;;;5.40;45.70;;;;;;5041088;28;20692;-79
2022/11/03 02:05:37;;;;;;;5.33;2.47;;;5.50;82.50;;;;;;5038947;28;20202;-81
2022/11/03 02:08:09;;;;;;;7.00;1.97;;;5.50;72.30;;;;;;5040308;28;20218;-81
2022/11/03 02:10:36;;;;;;;4.93;2.70;;;5.50;50.40;;;;;;5041349;28;20187;-81
2022/11/03 02:13:12;;;;;;;8.40;3.00;;;5.50;46.40;;;;;;5039515;28;20179;-80
2022/11/03 02:15:38;;;;;;;8.63;4.00;;;5.70;45.40;;;;;;5040408;28;20206;-81
2022/11/03 02:18:05;;;;;;;4.43;2.27;;;5.50;42.20;;;;;;5038735;28;20186;-81
2022/11/03 02:20:31;;;;;;;5.90;2.33;;;5.50;26.30;;;;;;5039205;28;20250;-82
2022/11/03 02:23:12;;;;;;;8.80;2.80;;;5.50;42.90;;;;;;5040032;28;20194;-81
2022/11/03 02:25:48;;;;;;;8.50;2.53;;;5.40;22.40;;;;;;5040025;28;20210;-79
2022/11/03 02:28:17;;;;;;;7.53;2.53;;;5.30;11.20;;;;;;5056226;28;20206;-79
2022/11/03 02:30:51;;;;;;;6.80;2.37;;;5.10;26.30;;;;;;5041127;28;20187;-80
2022/11/03 02:33:21;;;;;;;8.30;2.50;;;5.20;59.60;;;;;;5039676;28;20190;-79
2022/11/03 02:36:04;;;;;;;6.63;2.63;;;5.20;35.40;;;;;;5037619;28;20218;-81
2022/11/03 02:38:33;;;;;;;7.37;2.30;;;5.10;22.90;;;;;;5046932;28;20186;-80
2022/11/03 02:41:03;;;;;;;6.03;2.50;;;5.10;27.10;;;;;;5039161;28;20175;-82
2022/11/03 02:43:29;;;;;;;5.13;2.30;;;5.00;21.40;;;;;;5041743;28;20179;-81
2022/11/03 02:45:55;;;;;;;5.70;2.33;;;4.90;27.00;;;;;;5040350;28;20252;-82
2022/11/03 02:48:20;;;;;;;3.83;2.40;;;4.90;59.00;;;;;;5038013;28;20201;-80
2022/11/03 02:50:48;;;;;;;4.80;2.30;;;4.90;63.70;;;;;;5041600;28;21448;-81
2022/11/03 02:53:14;;;;;;;7.47;2.73;;;4.90;70.60;;;;;;5037448;28;20198;-80
2022/11/03 02:55:45;;;;;;;3.67;2.17;;;4.90;86.00;;;;;;5039779;28;21006;-81
2022/11/03 02:58:33;;;;;;;5.60;2.40;;;4.90;96.80;;;;;;5045608;28;20226;-81
2022/11/03 03:01:13;;;;;;;4.83;2.20;;;5.00;89.40;;;;;;5039396;28;20199;-82
2022/11/03 03:03:52;;;;;;;6.17;2.50;;;5.00;94.80;;;;;;5039527;28;20190;-79
2022/11/03 03:06:41;;;;;;;4.30;2.20;;;5.00;88.60;;;;;;5040076;28;20211;-80
2022/11/03 03:09:12;;;;;;;5.20;2.03;;;4.90;85.50;;;;;;5038881;28;20202;-80
2022/11/03 03:11:41;;;;;;;5.80;2.03;;;4.90;93.80;;;;;;5038984;28;20712;-80
2022/11/03 03:14:28;;;;;;;4.20;1.80;;;5.00;99.40;;;;;;5038742;28;20175;-82
2022/11/03 03:17:17;;;;;;;6.17;2.20;;;5.10;97.90;;;;;;5039596;28;20268;-82
2022/11/03 03:19:53;;;;;;;5.33;2.00;;;5.10;99.90;;;;;;5040690;28;20175;-81
2022/11/03 03:22:22;;;;;;;4.87;2.37;;;5.10;88.70;;;;;;5039749;28;20179;-82
2022/11/03 03:25:10;;;;;;;8.13;2.40;;;5.10;58.90;;;;;;5039493;28;20257;-81
2022/11/03 03:27:41;;;;;;;5.70;2.27;;;5.00;45.40;;;;;;5038437;28;20236;-81
2022/11/03 03:30:07;;;;;;;6.43;2.63;;;5.00;60.30;;;;;;5047024;28;20175;-80
2022/11/03 03:32:45;;;;;;;5.43;2.10;;;5.00;90.90;;;;;;5037436;28;20767;-81
2022/11/03 03:35:16;;;;;;;8.07;2.20;;;5.00;93.30;;;;;;5039052;28;21314;-80
2022/11/03 03:37:47;;;;;;;6.77;1.70;;;5.00;99.90;;;;;;5038090;28;20265;-82
2022/11/03 03:40:17;;;;;;;5.53;2.27;;;5.30;99.90;;;;;;5039193;28;20194;-81
2022/11/03 03:42:45;;;;;;;7.83;2.27;;;5.20;99.90;;;;;;5054763;28;20183;-81
2022/11/03 03:45:12;;;;;;;4.57;1.90;;;5.30;99.90;;;;;;5055655;28;21214;-82
2022/11/03 03:47:37;;;;;;;7.37;1.70;;;6.00;99.90;;;;;;5038459;28;20725;-80
2022/11/03 03:50:04;;;;;;;4.13;1.67;;;5.60;99.90;;;;;;5039197;28;20259;-80
2022/11/03 03:52:32;;;;;;;6.07;2.20;;;5.80;91.40;;;;;;5037874;28;20187;-81
2022/11/03 03:54:57;;;;;;;6.70;1.73;;;5.90;81.70;;;;;;5039286;28;20178;-79
2022/11/03 03:57:26;;;;;;;5.50;2.30;;;6.00;50.30;;;;;;5034388;28;20280;-79
2022/11/03 03:59:51;;;;;;;6.47;2.00;;;6.10;30.90;;;;;;5044581;28;20261;-80
2022/11/03 04:02:17;;;;;;;7.63;2.00;;;6.30;17.00;;;;;;5037312;28;20280;-80
2022/11/03 04:04:43;;;;;;;8.83;2.00;;;6.40;11.90;;;;;;5036856;28;20662;-81
2022/11/03 04:09:53;;;;;;;5.53;1.80;;;6.50;1.90;;;;;;5036585;28;20655;-79
2022/11/03 04:23:33;;;;;;;7.50;1.90;;;6.70;1.00;;;;;;5043641;28;20968;-80
2022/11/03 04:25:58;;;;;;;6.30;1.90;;;7.10;1.00;;;;;;5042608;28;20210;-78
2022/11/03 04:28:25;;;;;;;3.87;1.80;;;6.70;1.00;;;;;;5049293;28;20689;-79
2022/11/03 04:30:51;;;;;;;6.90;2.10;;;6.70;1.00;;;;;;5041306;28;20175;-82
2022/11/03 04:33:20;;;;;;;5.83;1.77;;;6.50;1.00;;;;;;5040629;28;20677;-80
2022/11/03 04:35:46;;;;;;;9.27;2.00;;;6.50;1.00;;;;;;5040985;28;20210;-78
2022/11/03 04:38:12;;;;;;;7.57;2.00;;;6.50;1.00;;;;;;5047721;28;20185;-82
2022/11/03 04:40:52;;;;;;;5.90;1.80;;;6.50;1.00;;;;;;5041486;28;20179;-81
2022/11/03 04:43:19;;;;;;;4.27;1.80;;;6.40;1.00;;;;;;5047691;28;20194;-81
2022/11/03 04:45:46;;;;;;;7.20;2.10;;;6.50;1.00;;;;;;5041696;28;20202;-80
2022/11/03 04:48:14;;;;;;;7.27;1.80;;;7.50;1.00;;;;;;5041465;28;20541;-82
2022/11/03 04:50:41;;;;;;;7.63;1.90;;;6.50;1.00;;;;;;5041185;28;20539;-82
2022/11/03 04:53:15;;;;;;;6.60;1.80;;;6.50;1.00;;;;;;5039909;28;20617;-81
2022/11/03 04:55:41;;;;;;;6.20;2.00;;;6.40;1.00;;;;;;5041817;28;20290;-79
2022/11/03 04:58:18;;;;;;;8.57;1.90;;;6.30;1.00;;;;;;5047821;28;20202;-79
2022/11/03 05:00:44;;;;;;;8.03;1.80;;;6.20;1.00;;;;;;5041309;28;20178;-79
2022/11/03 05:03:21;;;;;;;6.47;1.87;;;6.20;1.00;;;;;;5040651;28;20201;-80
2022/11/03 05:05:47;;;;;;;6.07;2.40;;;6.20;1.00;;;;;;5041260;28;21645;-79
2022/11/03 05:08:16;;;;;;;5.07;1.80;;;6.10;1.00;;;;;;5041499;28;20193;-82
2022/11/03 05:10:41;;;;;;;6.50;1.80;;;6.10;2.80;;;;;;5040067;28;20179;-79
2022/11/03 05:13:27;;;;;;;7.97;2.00;;;6.00;6.70;;;;;;5041448;28;21238;-79
2022/11/03 05:16:01;;;;;;;4.87;1.90;;;6.10;14.50;;;;;;5047780;28;20214;-79
2022/11/03 05:18:35;;;;;;;6.47;1.80;;;6.00;17.30;;;;;;5039862;28;20180;-81
2022/11/03 05:21:07;;;;;;;4.83;2.00;;;6.00;30.80;;;;;;5043009;28;20183;-82
2022/11/03 05:23:43;;;;;;;6.30;2.20;;;6.00;15.00;;;;;;5042898;28;20178;-79
2022/11/03 05:26:17;;;;;;;8.90;1.80;;;6.10;14.20;;;;;;5041077;28;20202;-81
2022/11/03 05:28:51;;;;;;;7.40;1.90;;;6.10;13.10;;;;;;5042048;28;20185;-80
2022/11/03 05:31:28;;;;;;;2.63;1.60;;;6.00;12.10;;;;;;5040896;28;20300;-81
2022/11/03 05:34:00;;;;;;;4.80;2.00;;;6.00;14.90;;;;;;5041331;28;20261;-79
2022/11/03 05:36:29;;;;;;;5.77;1.63;;;6.00;21.20;;;;;;5041293;28;20222;-80
2022/11/03 05:39:23;;;;;;;10.87;2.60;;;6.00;23.30;;;;;;5041529;28;20292;-79
2022/11/03 05:41:49;;;;;;;7.40;2.10;;;6.10;18.50;;;;;;5041866;28;20240;-79
2022/11/03 05:44:33;;;;;;;4.03;1.80;;;6.10;18.80;;;;;;5040844;28;20187;-79
2022/11/03 05:47:00;;;;;;;5.10;1.70;;;6.10;22.10;;;;;;5041861;28;20198;-81
2022/11/03 05:49:27;;;;;;;4.30;2.00;;;6.10;25.00;;;;;;5041009;28;20241;-81
2022/11/03 05:51:53;;;;;;;6.57;2.20;;;6.10;19.30;;;;;;5041518;28;20206;-80
2022/11/03 05:54:26;;;;;;;5.93;2.10;;;6.20;21.40;;;;;;5039760;28;20191;-81
2022/11/03 05:56:53;;;;;;;6.37;2.17;;;6.10;20.70;;;;;;5039949;28;20209;-80
2022/11/03 05:59:25;;;;;;;4.40;1.73;;;6.10;20.40;;;;;;5040123;28;20540;-81
2022/11/03 06:01:52;;;;;;;5.87;1.77;;;6.10;24.90;;;;;;5042031;28;20170;-81
2022/11/03 06:04:25;;;;;;;9.20;2.63;;;6.10;22.00;;;;;;5041962;28;20225;-80
2022/11/03 06:07:24;;;;;;;4.17;1.50;;;6.10;19.50;;;;;;5057686;28;20285;-79
2022/11/03 06:09:52;;;;;;;9.63;2.13;;;6.10;23.00;;;;;;5035536;28;20687;-83
2022/11/03 06:12:21;;;;;;;6.90;2.07;;;6.30;20.10;;;;;;5041942;28;20878;-82
2022/11/03 06:14:46;;;;;;;5.50;2.30;;;6.20;13.60;;;;;;5041074;28;20566;-79
2022/11/03 06:17:27;;;;;;;9.17;2.10;;;6.20;9.40;;;;;;5041242;28;20218;-83
2022/11/03 06:19:57;;;;;;;7.67;2.00;;;6.50;11.90;;;;;;5040397;28;20183;-81
2022/11/03 06:22:24;;;;;;;6.07;1.90;;;6.40;12.40;;;;;;5042923;28;20182;-80
2022/11/03 06:24:54;;;;;;;13.33;2.50;;;6.20;13.40;;;;;;5042453;28;20390;-79
2022/11/03 06:27:25;;;;;;;10.67;2.47;;;6.20;16.60;;;;;;5047843;28;20206;-80
2022/11/03 06:30:02;;;;;;;8.67;2.20;;;6.20;24.40;;;;;;5040517;28;20186;-81
2022/11/03 06:32:29;;;;;;;8.63;2.00;;;6.40;27.70;;;;;;5040420;28;20178;-82
2022/11/03 06:34:56;;;;;;;9.43;2.30;;;6.20;36.20;;;;;;5040128;28;20182;-80
2022/11/03 06:37:26;;;;;;;5.63;2.00;;;6.30;32.50;;;;;;5039589;28;20290;-81
2022/11/03 06:39:58;;;;;;;5.70;2.10;;;6.40;25.90;;;;;;5042947;28;20208;-81
2022/11/03 06:42:25;;;;;;;7.43;2.10;;;6.40;24.90;;;;;;5048294;28;20320;-81
2022/11/03 06:44:51;;;;;;;7.23;1.97;;;6.60;25.10;;;;;;5040050;28;20190;-83
2022/11/03 06:47:20;;;;;;;6.80;2.23;;;6.70;12.70;;;;;;5040220;28;20202;-82
2022/11/03 06:49:47;;;;;;;6.53;1.83;;;7.40;13.90;;;;;;5041052;28;20182;-79
2022/11/03 06:52:31;;;;;;;5.10;1.77;;;7.20;2.30;;;;;;5038718;28;20555;-81
2022/11/03 06:55:16;;;;;;;8.60;2.23;;;7.20;1.00;;;;;;5039879;28;20191;-79
2022/11/03 06:57:45;;;;;;;6.23;1.83;;;7.20;1.00;;;;;;5038595;28;21024;-78
2022/11/03 07:00:15;;;;;;;7.13;2.30;;;7.20;1.00;;;;;;5046196;28;20250;-80
2022/11/03 07:02:52;;;;;;;8.13;1.87;;;7.40;1.00;;;;;;5039592;28;20195;-79
2022/11/03 07:05:29;;;;;;;6.40;2.27;;;7.50;1.00;;;;;;5039899;28;20190;-81
2022/11/03 07:07:59;;;;;;;6.83;2.00;;;7.60;1.00;;;;;;5046224;28;20785;-80
2022/11/03 07:10:28;;;;;;;4.43;1.80;;;8.40;1.00;;;;;;5039142;28;20212;-81
2022/11/03 07:12:55;;;;;;;8.23;2.13;;;7.70;1.00;;;;;;5037523;28;20179;-79
2022/11/03 07:15:32;;;;;;;7.73;1.83;;;7.80;1.00;;;;;;5035843;28;20210;-85
2022/11/03 07:18:02;;;;;;;6.30;1.83;;;8.60;1.00;;;;;;5035703;28;20200;-82
2022/11/03 07:20:28;;;;;;;9.77;2.00;;;7.60;1.00;;;;;;5029916;28;20321;-80
2022/11/03 07:22:56;;;;;;;6.80;2.10;;;7.90;1.00;;;;;;5024202;28;20658;-82
2022/11/03 07:25:21;;;;;;;7.10;2.07;;;8.00;1.00;;;;;;5031967;28;20186;-79
2022/11/03 07:27:50;;;;;;;7.67;2.17;;;8.10;1.00;;;;;;5034923;28;20182;-80
2022/11/03 07:30:16;;;;;;;8.33;2.10;;;8.60;1.00;;;;;;5036574;28;20227;-78
2022/11/03 07:32:41;;;;;;;7.33;1.60;;;8.20;1.00;;;;;;5036740;28;20248;-80
2022/11/03 07:35:16;;;;;;;5.13;1.70;;;8.20;1.00;;;;;;5035619;28;20183;-81
2022/11/03 07:37:43;;;;;;;7.23;1.80;;;8.40;1.00;;;;;;5035325;28;20193;-80
2022/11/03 07:40:15;;;;;;;5.97;2.10;;;8.70;1.00;;;;;;5037756;28;20182;-78
2022/11/03 07:42:40;;;;;;;5.40;2.20;;;8.40;1.00;;;;;;5034667;28;21157;-83
2022/11/03 07:45:47;;;;;;;4.80;1.80;;;8.40;1.00;;;;;;5042682;28;20213;-83
2022/11/03 07:48:47;;;;;;;8.10;2.13;;;8.50;1.00;;;;;;5035133;28;20197;-83
2022/11/03 07:51:24;;;;;;;4.93;1.77;;;8.50;1.00;;;;;;5042790;28;20231;-82
2022/11/03 07:54:02;;;;;;;6.07;2.00;;;8.60;1.00;;;;;;5035893;28;20181;-81
2022/11/03 07:56:39;;;;;;;5.57;1.93;;;8.60;1.00;;;;;;5035778;28;20215;-82
2022/11/03 07:59:08;;;;;;;6.10;1.70;;;8.70;1.00;;;;;;5036061;28;20227;-81
2022/11/03 08:01:38;;;;;;;6.70;2.03;;;8.80;1.00;;;;;;5037377;28;20204;-80
2022/11/03 08:04:07;;;;;;;10.23;2.33;;;9.20;1.00;;;;;;5042743;28;20664;-81
2022/11/03 08:06:33;;;;;;;7.13;1.90;;;9.50;1.00;;;;;;5036392;28;20307;-82
2022/11/03 08:08:58;;;;;;;6.10;2.07;;;9.70;1.00;;;;;;5033323;28;20182;-80
2022/11/03 08:11:24;;;;;;;5.10;1.70;;;9.90;1.00;;;;;;5032802;28;20190;-81
2022/11/03 08:13:50;;;;;;;9.60;2.30;;;9.10;1.00;;;;;;5032624;28;20189;-80
2022/11/03 08:16:17;;;;;;;8.07;1.87;;;9.20;1.00;;;;;;5039187;28;20226;-80
2022/11/03 08:18:42;;;;;;;6.97;2.10;;;10.60;1.00;;;;;;5042184;28;20189;-81
2022/11/03 08:21:08;;;;;;;7.07;1.80;;;9.30;1.00;;;;;;5034791;28;20191;-80
2022/11/03 08:23:34;;;;;;;5.63;1.80;;;9.50;1.00;;;;;;5041679;28;20185;-81
2022/11/03 08:25:59;;;;;;;4.40;2.07;;;9.50;1.00;;;;;;5037115;28;20201;-80
2022/11/03 08:28:25;;;;;;;8.70;2.60;;;9.90;1.00;;;;;;5035476;28;20183;-82
2022/11/03 08:30:51;;;;;;;5.23;2.13;;;9.90;1.00;;;;;;5035025;28;20183;-79
2022/11/03 08:33:16;;;;;;;5.50;2.23;;;10.20;1.00;;;;;;5034338;28;20253;-80
2022/11/03 08:35:42;;;;;;;6.63;1.80;;;9.70;1.00;;;;;;5035395;28;20220;-79
2022/11/03 08:38:08;;;;;;;5.00;2.00;;;9.70;1.00;;;;;;5029761;28;20525;-81
2022/11/03 08:40:33;;;;;;;7.23;1.90;;;9.80;1.00;;;;;;5027759;28;20249;-81
2022/11/03 08:43:01;;;;;;;5.87;1.73;;;9.80;1.00;;;;;;5033420;28;20185;-80
2022/11/03 08:45:29;;;;;;;6.83;2.00;;;10.10;1.00;;;;;;5029062;28;20597;-80
2022/11/03 08:47:55;;;;;;;6.93;2.10;;;10.00;1.00;;;;;;5034040;28;20182;-80
2022/11/03 08:50:21;;;;;;;7.07;2.07;;;10.00;1.00;;;;;;5042844;28;20453;-80
2022/11/03 08:52:48;;;;;;;7.30;2.30;;;10.80;1.00;;;;;;5024514;28;20234;-80
2022/11/03 08:55:14;;;;;;;8.20;1.87;;;10.40;1.00;;;;;;5023145;28;20191;-79
2022/11/03 08:57:40;;;;;;;7.63;3.03;;;10.30;1.00;;;;;;5021479;28;20198;-81
2022/11/03 09:00:06;;;;;;;5.43;2.07;;;10.40;1.00;;;;;;5043010;28;20650;-81
2022/11/03 09:02:32;;;;;;;19.50;12.23;;;10.50;1.00;;;;;;5026746;28;20309;-82
2022/11/03 09:04:58;;;;;;;16.10;12.40;;;10.60;1.00;;;;;;5040318;28;20266;-82
2022/11/03 09:07:24;;;;;;;8.80;6.83;;;10.70;1.00;;;;;;5028344;28;20317;-80
2022/11/03 09:09:49;;;;;;;7.73;3.63;;;10.90;1.00;;;;;;5032337;28;20187;-80
2022/11/03 09:12:15;;;;;;;11.57;8.87;;;10.90;1.00;;;;;;5034808;28;20194;-81
2022/11/03 09:14:40;;;;;;;10.50;9.07;;;11.00;1.00;;;;;;5030119;28;20194;-80
2022/11/03 09:17:06;;;;;;;9.77;8.87;;;11.10;1.00;;;;;;5034730;28;20215;-81
2022/11/03 09:19:32;;;;;;;7.20;3.20;;;11.20;1.00;;;;;;5029645;28;20186;-80
2022/11/03 09:21:59;;;;;;;7.60;2.73;;;11.10;1.00;;;;;;5054942;28;20183;-80
2022/11/03 09:24:25;;;;;;;6.40;2.00;;;11.10;1.00;;;;;;5040444;28;20179;-82
2022/11/03 09:26:52;;;;;;;7.43;2.10;;;11.10;1.00;;;;;;5034744;28;20195;-80
2022/11/03 09:29:18;;;;;;;7.90;2.03;;;11.10;1.00;;;;;;5040734;28;20578;-81
2022/11/03 09:31:43;;;;;;;5.57;2.30;;;11.20;1.00;;;;;;5040472;28;20183;-83
2022/11/03 09:34:09;;;;;;;7.10;2.03;;;11.30;1.00;;;;;;5038019;28;20190;-80
2022/11/03 09:36:35;;;;;;;4.40;1.70;;;11.30;1.00;;;;;;5038080;28;20236;-82
2022/11/03 09:39:00;;;;;;;7.07;1.83;;;11.50;1.00;;;;;;5036496;28;20191;-81
2022/11/03 09:41:26;;;;;;;5.93;2.00;;;11.30;1.00;;;;;;5039148;28;20179;-80
2022/11/03 09:43:52;;;;;;;4.87;2.00;;;11.30;1.00;;;;;;5038069;28;20183;-80
2022/11/03 09:46:18;;;;;;;6.90;2.10;;;11.20;1.00;;;;;;5044497;28;20221;-80
2022/11/03 09:48:44;;;;;;;5.33;1.90;;;11.40;1.00;;;;;;5035862;28;20270;-79
2022/11/03 09:51:17;;;;;;;7.70;2.60;;;11.50;1.00;;;;;;5035374;28;20981;-81
2022/11/03 09:53:42;;;;;;;5.77;1.67;;;11.50;1.00;;;;;;5044491;28;20802;-80
2022/11/03 09:56:09;;;;;;;7.23;2.40;;;11.50;1.00;;;;;;5035949;28;20222;-80
2022/11/03 09:58:35;;;;;;;5.03;1.90;;;12.20;1.00;;;;;;5051709;28;20198;-80
2022/11/03 10:01:01;;;;;;;5.70;2.37;;;11.70;1.00;;;;;;5034546;28;20182;-82
2022/11/03 10:03:27;;;;;;;8.00;2.53;;;11.80;1.00;;;;;;5036935;28;20202;-82
2022/11/03 10:05:53;;;;;;;5.57;1.93;;;11.90;1.00;;;;;;5036700;28;20233;-81
2022/11/03 10:08:31;;;;;;;4.77;2.20;;;11.80;1.00;;;;;;5036543;28;20221;-81
2022/11/03 10:10:57;;;;;;;5.43;2.50;;;12.00;1.00;;;;;;5039582;28;20185;-83
2022/11/03 10:13:30;;;;;;;6.50;2.63;;;12.00;1.00;;;;;;5040605;28;20186;-80
2022/11/03 10:16:06;;;;;;;13.30;7.75;;;12.00;1.00;;;;;;5035944;28;20242;-80
2022/11/03 10:18:33;;;;;;;5.28;2.72;;;12.10;1.00;;;;;;5033039;28;20260;-82
2022/11/03 10:21:04;;;;;;;6.65;2.28;;;12.20;1.00;;;;;;5035384;28;20183;-82
2022/11/03 10:23:29;;;;;;;5.88;2.20;;;12.50;1.00;;;;;;5033222;28;20183;-81
2022/11/03 10:26:09;;;;;;;6.47;2.80;;;12.30;1.00;;;;;;5034782;28;20205;-81
2022/11/03 10:28:35;;;;;;;5.28;2.45;;;12.40;1.00;;;;;;5035373;28;20182;-81
2022/11/03 10:31:07;;;;;;;4.15;2.38;;;12.30;1.00;;;;;;5034833;28;20186;-81
2022/11/03 10:33:35;;;;;;;4.90;2.45;;;12.40;1.00;;;;;;5034233;28;20187;-82
2022/11/03 10:36:13;;;;;;;6.03;2.72;;;12.60;1.00;;;;;;5036856;28;20217;-81
2022/11/03 10:38:39;;;;;;;5.73;1.97;;;12.60;1.00;;;;;;5037058;28;20174;-80
2022/11/03 10:41:12;;;;;;;7.90;2.30;;;12.60;1.00;;;;;;5033844;28;20190;-81
2022/11/03 10:43:39;;;;;;;6.15;3.30;;;12.80;1.00;;;;;;5034026;28;20252;-81
2022/11/03 10:46:25;;;;;;;9.00;3.42;;;12.80;1.00;;;;;;5034476;28;20573;-81
2022/11/03 10:49:04;;;;;;;16.23;13.93;;;12.70;1.00;;;;;;5033918;28;20278;-81
2022/11/03 10:51:33;;;;;;;9.65;4.55;;;12.80;1.00;;;;;;5050264;28;20178;-80
2022/11/03 10:54:03;;;;;;;9.93;6.15;;;12.80;1.00;;;;;;5036181;28;20560;-80
2022/11/03 10:56:30;;;;;;;8.43;4.22;;;12.90;1.00;;;;;;5029741;28;20214;-81
2022/11/03 10:58:57;;;;;;;7.20;3.45;;;13.00;1.00;;;;;;5026813;28;20503;-80
2022/11/03 11:01:23;;;;;;;14.68;12.73;;;13.30;1.00;;;;;;5025824;28;20190;-81
2022/11/03 11:03:49;;;;;;;9.15;5.68;;;13.40;1.00;;;;;;5031126;28;20198;-81
2022/11/03 11:06:25;;;;;;;7.18;3.08;;;13.50;1.00;;;;;;5033239;28;20214;-81
2022/11/03 11:08:59;;;;;;;4.65;2.20;;;13.50;1.00;;;;;;5025994;28;20178;-80
2022/11/03 11:11:25;;;;;;;7.53;2.40;;;13.40;1.00;;;;;;5029256;28;20262;-80
2022/11/03 11:14:24;;;;;;;4.50;2.38;;;13.30;1.00;;;;;;5041488;28;20206;-81
2022/11/03 11:16:57;;;;;;;6.95;2.72;;;13.40;1.00;;;;;;5040279;28;20207;-81
2022/11/03 11:19:24;;;;;;;5.57;2.05;;;13.30;1.00;;;;;;5033983;28;20182;-81
2022/11/03 11:21:52;;;;;;;4.38;2.58;;;13.50;1.00;;;;;;5026248;28;20182;-81
2022/11/03 11:24:43;;;;;;;5.55;2.10;;;13.70;1.00;;;;;;5028203;28;20193;-81
2022/11/03 11:27:33;;;;;;;11.48;2.80;;;13.60;1.00;;;;;;5026375;28;20209;-81
2022/11/03 11:30:01;;;;;;;3.33;1.90;;;13.70;1.00;;;;;;5032917;28;20178;-80
2022/11/03 11:32:38;;;;;;;5.30;2.15;;;13.60;1.00;;;;;;5032270;28;20655;-81
2022/11/03 11:35:38;;;;;;;5.50;2.20;;;13.40;1.00;;;;;;5045903;28;20567;-81
2022/11/03 11:38:41;;;;;;;4.90;2.25;;;13.30;1.00;;;;;;4993713;28;20565;-81
2022/11/03 11:41:07;;;;;;;6.35;1.90;;;13.30;1.00;;;;;;5039449;28;20182;-81
2022/11/03 11:43:32;;;;;;;4.68;1.90;;;13.30;1.00;;;;;;5026700;28;20232;-82
2022/11/03 11:46:21;;;;;;;6.40;2.17;;;13.40;1.00;;;;;;5028408;28;20405;-81
2022/11/03 11:48:56;;;;;;;5.05;2.10;;;13.50;1.00;;;;;;5019545;28;20206;-81
2022/11/03 11:51:22;;;;;;;4.47;2.03;;;13.60;1.00;;;;;;5034464;28;20192;-81
2022/11/03 11:53:50;;;;;;;4.50;2.17;;;13.60;1.00;;;;;;5039478;28;20244;-81
2022/11/03 11:56:16;;;;;;;6.85;2.13;;;13.60;1.00;;;;;;5034501;28;20214;-83
2022/11/03 11:58:47;;;;;;;4.82;2.15;;;13.50;1.00;;;;;;5041324;28;20246;-79
2022/11/03 12:01:25;;;;;;;9.07;6.15;;;13.50;1.00;;;;;;5029361;28;20203;-82
2022/11/03 12:03:53;;;;;;;6.63;3.65;;;13.40;1.00;;;;;;5034531;28;20194;-81
2022/11/03 12:06:35;;;;;;;5.45;2.10;;;13.30;1.00;;;;;;5030108;28;20815;-81
2022/11/03 12:09:11;;;;;;;5.03;2.47;;;13.30;1.00;;;;;;5034320;28;20270;-81
2022/11/03 12:12:02;;;;;;;6.35;2.63;;;13.30;1.00;;;;;;5049898;28;20185;-81
2022/11/03 12:14:27;;;;;;;6.13;2.00;;;13.40;1.00;;;;;;5032977;28;20189;-81
2022/11/03 12:16:54;;;;;;;4.53;2.03;;;13.50;1.00;;;;;;5034387;28;20260;-81
2022/11/03 12:19:43;;;;;;;6.78;4.25;;;13.70;1.00;;;;;;5032601;28;20183;-82
2022/11/03 12:22:27;;;;;;;8.65;4.95;;;13.60;1.00;;;;;;5033910;28;20512;-83
2022/11/03 12:25:02;;;;;;;6.82;3.58;;;13.70;1.00;;;;;;5051664;28;20228;-83
2022/11/03 12:27:29;;;;;;;16.75;12.18;;;13.80;1.00;;;;;;5036758;28;20194;-78
2022/11/03 12:30:04;;;;;;;10.38;6.75;;;13.80;1.00;;;;;;5036678;28;20178;-82
2022/11/03 12:32:30;;;;;;;10.65;7.07;;;13.80;1.00;;;;;;5032914;28;20193;-80
2022/11/03 12:34:56;;;;;;;6.15;4.07;;;13.70;1.00;;;;;;5035637;28;20182;-82
2022/11/03 12:37:22;;;;;;;9.45;6.47;;;13.80;1.00;;;;;;5042444;28;20706;-80
2022/11/03 12:39:48;;;;;;;12.65;8.40;;;13.80;1.00;;;;;;5042769;28;20191;-81
2022/11/03 12:42:13;;;;;;;9.10;5.70;;;13.70;1.00;;;;;;5030867;28;20672;-81
2022/11/03 12:44:39;;;;;;;7.82;3.63;;;13.50;1.00;;;;;;5046222;28;20207;-82
2022/11/03 12:47:05;;;;;;;7.32;5.20;;;13.50;1.00;;;;;;5039788;28;20206;-82
2022/11/03 12:49:30;;;;;;;7.85;6.05;;;13.60;1.00;;;;;;5036377;28;20579;-82
2022/11/03 12:52:04;;;;;;;5.22;2.53;;;13.70;1.00;;;;;;5039016;28;20666;-82
2022/11/03 12:54:30;;;;;;;8.93;6.43;;;13.50;1.00;;;;;;5040589;28;20261;-83
2022/11/03 12:56:56;;;;;;;19.27;16.00;;;13.60;1.00;;;;;;5041288;28;20202;-81
2022/11/03 12:59:21;;;;;;;7.45;5.05;;;13.70;1.00;;;;;;5045385;28;20179;-81
2022/11/03 13:01:47;;;;;;;10.93;5.75;;;13.70;1.00;;;;;;5044858;28;20182;-82
2022/11/03 13:04:13;;;;;;;5.13;3.30;;;13.50;1.00;;;;;;5036953;28;20199;-81
2022/11/03 13:06:38;;;;;;;8.57;5.97;;;13.70;1.00;;;;;;5039003;28;20210;-80
2022/11/03 13:09:04;;;;;;;11.73;6.60;;;13.70;1.00;;;;;;5044693;28;20198;-82
2022/11/03 13:14:14;;;;;;;16.05;13.15;;;13.40;1.00;;;;;;5038351;28;20871;-82
2022/11/03 13:16:39;;;;;;;26.23;18.60;;;13.70;1.00;;;;;;5039337;28;20211;-81
2022/11/03 13:19:05;;;;;;;12.90;8.88;;;13.60;1.00;;;;;;5038321;28;20715;-80
2022/11/03 13:21:31;;;;;;;16.98;8.80;;;13.60;1.00;;;;;;5039892;28;20559;-80
2022/11/03 13:23:57;;;;;;;23.23;19.67;;;13.50;1.00;;;;;;5033619;28;20201;-81
2022/11/03 13:26:22;;;;;;;23.95;19.20;;;13.40;1.00;;;;;;5037836;28;20262;-81
2022/11/03 13:28:48;;;;;;;160.63;97.47;;;13.40;1.00;;;;;;5038218;28;20212;-82
2022/11/03 13:31:14;;;;;;;16.23;13.13;;;13.30;1.00;;;;;;5036472;28;20194;-81
2022/11/03 13:33:39;;;;;;;7.28;6.13;;;13.20;1.00;;;;;;5037770;28;20186;-82
2022/11/03 13:36:05;;;;;;;5.65;3.50;;;13.20;1.00;;;;;;5038333;28;20209;-80